createdAt,value
2023-04-02T00:01:47.662Z,8.18
2023-04-02T00:04:22.352Z,6.15
2023-04-02T00:06:55.739Z,5.43
2023-04-02T00:09:29.325Z,6.78
2023-04-02T00:11:57.755Z,6.97
2023-04-02T00:14:30.510Z,5.82
2023-04-02T00:16:59.876Z,7.27
2023-04-02T00:19:36.763Z,6.45
2023-04-02T00:22:07.873Z,7.32
2023-04-02T00:24:34.816Z,7.13
2023-04-02T00:27:02.037Z,7.78
2023-04-02T00:29:29.118Z,9.13
2023-04-02T00:31:59.406Z,6.80
2023-04-02T00:34:32.665Z,5.88
2023-04-02T00:37:00.204Z,4.10
2023-04-02T00:39:30.013Z,3.65
2023-04-02T00:42:05.106Z,4.57
2023-04-02T00:44:44.204Z,3.75
2023-04-02T00:47:34.811Z,3.47
2023-04-02T00:50:29.145Z,3.63
2023-04-02T00:52:58.516Z,2.90
2023-04-02T00:55:34.776Z,4.93
2023-04-02T00:58:03.252Z,3.08
2023-04-02T01:00:34.316Z,3.50
2023-04-02T01:03:16.902Z,4.32
2023-04-02T01:05:47.074Z,4.60
2023-04-02T01:08:31.535Z,5.13
2023-04-02T01:11:28.640Z,5.95
2023-04-02T01:14:25.176Z,5.00
2023-04-02T01:17:04.908Z,5.18
2023-04-02T01:20:22.382Z,5.43
2023-04-02T01:23:17.152Z,10.70
2023-04-02T01:25:55.559Z,8.55
2023-04-02T01:28:35.479Z,5.97
2023-04-02T01:31:03.829Z,8.27
2023-04-02T01:33:34.468Z,9.75
2023-04-02T01:36:14.162Z,12.00
2023-04-02T01:38:51.130Z,12.30
2023-04-02T01:41:27.679Z,12.07
2023-04-02T01:44:03.112Z,10.20
2023-04-02T01:46:36.266Z,7.90
2023-04-02T01:49:11.788Z,6.87
2023-04-02T01:51:43.507Z,5.88
2023-04-02T01:54:11.164Z,5.57
2023-04-02T01:56:38.729Z,6.25
2023-04-02T01:59:08.467Z,5.72
2023-04-02T02:02:00.246Z,5.43
2023-04-02T02:04:27.356Z,6.20
2023-04-02T02:06:58.739Z,4.82
2023-04-02T02:09:30.082Z,6.50
2023-04-02T02:11:59.069Z,6.57
2023-04-02T02:14:28.126Z,6.30
2023-04-02T02:16:57.780Z,5.20
2023-04-02T02:19:27.599Z,6.60
2023-04-02T02:22:07.194Z,7.18
2023-04-02T02:24:36.342Z,6.78
2023-04-02T02:27:16.659Z,7.77
2023-04-02T02:29:45.931Z,6.55
2023-04-02T02:32:16.202Z,5.85
2023-04-02T02:34:50.052Z,10.95
2023-04-02T02:37:26.586Z,7.78
2023-04-02T02:39:57.026Z,6.57
2023-04-02T02:42:34.374Z,7.35
2023-04-02T02:45:04.284Z,6.28
2023-04-02T02:47:35.042Z,5.90
2023-04-02T02:50:08.213Z,7.25
2023-04-02T02:52:37.449Z,7.60
2023-04-02T02:55:19.136Z,5.10
2023-04-02T02:58:01.812Z,5.10
2023-04-02T03:00:35.693Z,4.88
2023-04-02T03:03:08.830Z,6.07
2023-04-02T03:05:37.653Z,5.07
2023-04-02T03:08:34.983Z,4.03
2023-04-02T03:11:36.308Z,4.05
2023-04-02T03:14:40.486Z,4.78
2023-04-02T03:17:18.869Z,4.20
2023-04-02T03:19:53.808Z,4.07
2023-04-02T03:22:38.380Z,4.40
2023-04-02T03:25:34.100Z,4.28
2023-04-02T03:28:08.127Z,5.43
2023-04-02T03:30:41.288Z,4.68
2023-04-02T03:33:21.717Z,4.83
2023-04-02T03:36:01.410Z,5.70
2023-04-02T03:38:32.995Z,5.32
2023-04-02T03:41:18.373Z,5.07
2023-04-02T03:43:53.686Z,6.55
2023-04-02T03:46:44.946Z,6.17
2023-04-02T03:49:38.479Z,8.48
2023-04-02T03:52:14.168Z,7.63
2023-04-02T03:54:53.224Z,9.63
2023-04-02T03:57:33.151Z,5.60
2023-04-02T04:00:08.252Z,7.67
2023-04-02T04:02:52.406Z,7.35
2023-04-02T04:05:26.355Z,7.38
2023-04-02T04:08:01.600Z,8.32
2023-04-02T04:10:29.674Z,6.60
2023-04-02T04:13:05.320Z,9.53
2023-04-02T04:15:40.600Z,8.00
2023-04-02T04:18:35.095Z,9.90
2023-04-02T04:21:16.028Z,12.93
2023-04-02T04:23:50.463Z,16.65
2023-04-02T04:26:24.891Z,7.13
2023-04-02T04:29:15.517Z,12.50
2023-04-02T04:31:55.670Z,12.10
2023-04-02T04:34:46.827Z,11.10
2023-04-02T04:37:25.361Z,38.05
2023-04-02T04:40:05.919Z,23.80
2023-04-02T04:42:36.092Z,20.90
2023-04-02T04:45:43.665Z,19.52
2023-04-02T04:48:26.860Z,14.32
2023-04-02T04:51:01.106Z,34.53
2023-04-02T04:53:30.614Z,34.70
2023-04-02T04:56:18.193Z,40.67
2023-04-02T04:59:01.984Z,44.95
2023-04-02T05:01:34.303Z,38.63
2023-04-02T05:04:11.569Z,49.03
2023-04-02T05:07:03.688Z,57.23
2023-04-02T05:09:45.304Z,45.45
2023-04-02T05:12:39.788Z,35.33
2023-04-02T05:15:21.943Z,26.00
2023-04-02T05:18:12.472Z,26.25
2023-04-02T05:20:52.375Z,16.67
2023-04-02T05:23:23.602Z,15.70
2023-04-02T05:25:59.949Z,11.15
2023-04-02T05:28:48.695Z,10.35
2023-04-02T05:31:22.443Z,10.73
2023-04-02T05:33:50.576Z,7.20
2023-04-02T05:36:24.059Z,8.18
2023-04-02T05:38:57.031Z,6.38
2023-04-02T05:41:37.108Z,6.20
2023-04-02T05:44:12.297Z,5.55
2023-04-02T05:46:48.924Z,7.50
2023-04-02T05:49:43.165Z,9.38
2023-04-02T05:52:25.533Z,6.47
2023-04-02T05:54:59.321Z,5.63
2023-04-02T05:57:44.579Z,5.47
2023-04-02T06:00:25.470Z,5.30
2023-04-02T06:03:00.975Z,5.65
2023-04-02T06:05:36.398Z,5.75
2023-04-02T06:08:09.254Z,12.55
2023-04-02T06:10:47.684Z,9.32
2023-04-02T06:13:18.792Z,7.40
2023-04-02T06:15:47.854Z,9.23
2023-04-02T06:18:25.905Z,10.75
2023-04-02T06:20:54.759Z,10.48
2023-04-02T06:23:44.530Z,7.18
2023-04-02T06:26:21.520Z,7.03
2023-04-02T06:28:53.991Z,6.88
2023-04-02T06:31:43.913Z,7.80
2023-04-02T06:34:18.466Z,6.03
2023-04-02T06:37:12.114Z,5.05
2023-04-02T06:39:39.124Z,6.97
2023-04-02T06:42:19.542Z,7.15
2023-04-02T06:45:29.306Z,6.70
2023-04-02T06:48:18.385Z,6.10
2023-04-02T06:50:56.773Z,5.50
2023-04-02T06:53:43.588Z,3.67
2023-04-02T06:56:36.512Z,3.72
2023-04-02T06:59:04.967Z,3.60
2023-04-02T07:01:36.449Z,4.47
2023-04-02T07:04:04.176Z,3.83
2023-04-02T07:06:39.343Z,5.45
2023-04-02T07:09:07.092Z,4.17
2023-04-02T07:11:37.311Z,5.47
2023-04-02T07:14:06.519Z,5.03
2023-04-02T07:16:36.827Z,6.45
2023-04-02T07:19:04.467Z,5.13
2023-04-02T07:21:34.261Z,4.10
2023-04-02T07:24:01.802Z,5.28
2023-04-02T07:26:28.781Z,3.85
2023-04-02T07:28:56.718Z,4.05
2023-04-02T07:31:26.094Z,6.07
2023-04-02T07:33:55.080Z,3.60
2023-04-02T07:36:24.304Z,4.13
2023-04-02T07:38:51.586Z,3.97
2023-04-02T07:41:19.830Z,4.20
2023-04-02T07:43:47.566Z,4.40
2023-04-02T07:46:16.937Z,3.20
2023-04-02T07:48:45.102Z,3.58
2023-04-02T07:51:20.280Z,3.65
2023-04-02T07:53:51.248Z,3.40
2023-04-02T07:56:20.653Z,3.38
2023-04-02T07:58:48.024Z,6.30
2023-04-02T08:01:21.685Z,3.53
2023-04-02T08:03:50.407Z,4.70
2023-04-02T08:06:18.445Z,3.60
2023-04-02T08:08:45.826Z,3.53
2023-04-02T08:11:13.043Z,3.87
2023-04-02T08:13:40.337Z,4.35
2023-04-02T08:16:08.313Z,4.22
2023-04-02T08:18:36.751Z,4.30
2023-04-02T08:21:06.968Z,3.00
2023-04-02T08:23:35.232Z,4.10
2023-04-02T08:26:02.506Z,3.35
2023-04-02T08:28:30.047Z,3.25
2023-04-02T08:30:57.115Z,4.38
2023-04-02T08:33:24.463Z,3.92
2023-04-02T08:35:51.472Z,4.13
2023-04-02T08:38:21.782Z,4.60
2023-04-02T08:40:54.475Z,3.60
2023-04-02T08:43:38.999Z,3.30
2023-04-02T08:46:22.775Z,3.80
2023-04-02T08:48:55.625Z,3.87
2023-04-02T08:51:32.803Z,3.45
2023-04-02T08:54:03.381Z,3.83
2023-04-02T08:57:02.367Z,4.00
2023-04-02T08:59:40.281Z,4.03
2023-04-02T09:02:37.951Z,3.23
2023-04-02T09:05:08.474Z,3.42
2023-04-02T09:07:35.611Z,3.17
2023-04-02T09:10:02.992Z,3.72
2023-04-02T09:12:32.021Z,4.40
2023-04-02T09:15:12.106Z,5.13
2023-04-02T09:17:50.637Z,4.65
2023-04-02T09:20:29.556Z,3.10
2023-04-02T09:22:57.390Z,2.50
2023-04-02T09:25:27.677Z,3.45
2023-04-02T09:27:57.075Z,2.80
2023-04-02T09:30:36.217Z,2.70
2023-04-02T09:33:07.977Z,4.55
2023-04-02T09:35:37.649Z,3.65
2023-04-02T09:38:07.787Z,3.80
2023-04-02T09:40:46.940Z,3.77
2023-04-02T09:43:25.918Z,4.68
2023-04-02T09:45:58.761Z,4.15
2023-04-02T09:48:34.715Z,4.20
2023-04-02T09:51:25.762Z,8.65
2023-04-02T09:54:04.861Z,6.33
2023-04-02T09:56:34.737Z,3.10
2023-04-02T09:59:13.972Z,4.72
2023-04-02T10:01:57.286Z,6.25
2023-04-02T10:04:38.722Z,4.43
2023-04-02T10:07:06.730Z,3.00
2023-04-02T10:09:38.648Z,4.60
2023-04-02T10:12:12.580Z,3.53
2023-04-02T10:14:45.862Z,3.55
2023-04-02T10:17:19.230Z,2.80
2023-04-02T10:19:52.472Z,2.60
2023-04-02T10:22:21.826Z,3.03
2023-04-02T10:24:49.796Z,3.00
2023-04-02T10:27:22.703Z,2.97
2023-04-02T10:30:15.880Z,3.08
2023-04-02T10:33:05.202Z,3.30
2023-04-02T10:35:35.025Z,3.05
2023-04-02T10:38:14.783Z,2.75
2023-04-02T10:40:51.136Z,2.83
2023-04-02T10:43:24.406Z,2.90
2023-04-02T10:45:57.696Z,4.13
2023-04-02T10:48:30.514Z,3.60
2023-04-02T10:51:28.926Z,3.50
2023-04-02T10:54:22.446Z,4.85
2023-04-02T10:56:53.441Z,22.90
2023-04-02T10:59:28.512Z,19.30
2023-04-02T11:01:59.423Z,9.45
2023-04-02T11:04:32.900Z,4.28
2023-04-02T11:07:14.905Z,3.03
2023-04-02T11:09:46.213Z,6.35
2023-04-02T11:12:23.740Z,4.27
2023-04-02T11:14:52.436Z,8.63
2023-04-02T11:17:20.222Z,5.38
2023-04-02T11:19:47.663Z,3.88
2023-04-02T11:22:21.299Z,3.10
2023-04-02T11:24:51.298Z,2.70
2023-04-02T11:27:29.294Z,3.97
2023-04-02T11:30:18.796Z,3.15
2023-04-02T11:32:49.789Z,3.00
2023-04-02T11:35:32.137Z,4.07
2023-04-02T11:38:23.133Z,3.10
2023-04-02T11:40:59.806Z,4.65
2023-04-02T11:43:32.887Z,13.35
2023-04-02T11:46:06.713Z,12.35
2023-04-02T11:48:36.467Z,6.30
2023-04-02T11:51:24.965Z,3.00
2023-04-02T11:53:54.673Z,2.70
2023-04-02T11:56:31.573Z,3.97
2023-04-02T11:59:17.441Z,2.85
2023-04-02T12:02:06.826Z,3.28
2023-04-02T12:05:04.542Z,5.80
2023-04-02T12:07:52.561Z,2.92
2023-04-02T12:10:22.596Z,3.00
2023-04-02T12:12:50.795Z,3.05
2023-04-02T12:15:27.218Z,2.47
2023-04-02T12:18:05.302Z,2.73
2023-04-02T12:20:32.853Z,3.13
2023-04-02T12:23:00.509Z,3.28
2023-04-02T12:25:33.482Z,3.88
2023-04-02T12:28:09.804Z,3.25
2023-04-02T12:30:38.578Z,2.37
2023-04-02T12:33:38.159Z,2.85
2023-04-02T12:36:17.309Z,2.42
2023-04-02T12:38:53.700Z,2.45
2023-04-02T12:41:27.432Z,2.53
2023-04-02T12:43:59.744Z,2.43
2023-04-02T12:46:27.712Z,2.70
2023-04-02T12:49:05.150Z,6.78
2023-04-02T12:51:32.392Z,4.32
2023-04-02T12:54:00.008Z,2.80
2023-04-02T12:56:27.416Z,2.80
2023-04-02T12:58:54.863Z,2.70
2023-04-02T13:01:24.794Z,2.88
2023-04-02T13:04:08.904Z,2.38
2023-04-02T13:06:36.613Z,2.45
2023-04-02T13:09:07.046Z,2.73
2023-04-02T13:11:39.164Z,2.53
2023-04-02T13:14:19.272Z,2.20
2023-04-02T13:16:46.738Z,4.47
2023-04-02T13:19:16.960Z,3.80
2023-04-02T13:21:45.547Z,3.40
2023-04-02T13:24:21.828Z,2.60
2023-04-02T13:26:49.931Z,2.00
2023-04-02T13:29:34.350Z,2.63
2023-04-02T13:32:04.388Z,2.30
2023-04-02T13:34:32.020Z,2.30
2023-04-02T13:36:59.316Z,2.50
2023-04-02T13:39:27.263Z,2.88
2023-04-02T13:42:03.014Z,2.40
2023-04-02T13:44:32.359Z,2.30
2023-04-02T13:47:00.792Z,2.30
2023-04-02T13:49:28.413Z,2.83
2023-04-02T13:52:00.696Z,2.20
2023-04-02T13:54:41.202Z,2.80
2023-04-02T13:57:08.598Z,2.67
2023-04-02T13:59:36.206Z,3.13
2023-04-02T14:02:08.822Z,2.67
2023-04-02T14:04:41.641Z,2.40
2023-04-02T14:07:20.721Z,2.92
2023-04-02T14:10:09.623Z,2.42
2023-04-02T14:12:57.512Z,2.00
2023-04-02T14:15:40.566Z,2.47
2023-04-02T14:18:30.796Z,2.10
2023-04-02T14:21:10.630Z,3.00
2023-04-02T14:23:56.153Z,2.55
2023-04-02T14:26:23.317Z,3.00
2023-04-02T14:28:59.346Z,3.17
2023-04-02T14:31:50.151Z,2.40
2023-04-02T14:34:29.368Z,3.47
2023-04-02T14:37:13.698Z,2.72
2023-04-02T14:39:55.180Z,2.40
2023-04-02T14:42:44.119Z,2.45
2023-04-02T14:45:27.370Z,2.38
2023-04-02T14:48:06.533Z,2.60
2023-04-02T14:50:39.065Z,2.15
2023-04-02T14:53:14.757Z,2.40
2023-04-02T14:55:47.349Z,2.50
2023-04-02T14:58:27.970Z,2.40
2023-04-02T15:01:14.015Z,2.50
2023-04-02T15:03:48.618Z,2.70
2023-04-02T15:06:21.541Z,2.50
2023-04-02T15:09:09.058Z,2.70
2023-04-02T15:11:41.350Z,2.97
2023-04-02T15:14:16.931Z,2.50
2023-04-02T15:16:45.012Z,2.60
2023-04-02T15:19:14.863Z,2.80
2023-04-02T15:21:55.749Z,2.40
2023-04-02T15:24:38.765Z,2.40
2023-04-02T15:27:25.802Z,2.70
2023-04-02T15:30:01.109Z,2.50
2023-04-02T15:32:34.285Z,2.60
2023-04-02T15:35:35.839Z,4.78
2023-04-02T15:38:14.923Z,2.70
2023-04-02T15:40:51.759Z,4.28
2023-04-02T15:43:30.593Z,2.80
2023-04-02T15:46:10.132Z,2.73
2023-04-02T15:49:02.810Z,3.10
2023-04-02T15:51:39.347Z,2.63
2023-04-02T15:54:52.369Z,2.40
2023-04-02T15:58:01.711Z,2.65
2023-04-02T16:00:47.237Z,2.50
2023-04-02T16:03:40.259Z,4.50
2023-04-02T16:06:27.099Z,2.40
2023-04-02T16:09:08.722Z,2.55
2023-04-02T16:11:36.690Z,2.40
2023-04-02T16:14:25.640Z,2.50
2023-04-02T16:16:56.192Z,2.33
2023-04-02T16:19:45.088Z,2.40
2023-04-02T16:22:18.541Z,2.40
2023-04-02T16:24:50.040Z,2.40
2023-04-02T16:27:23.864Z,2.20
2023-04-02T16:30:01.209Z,2.65
2023-04-02T16:32:53.358Z,2.40
2023-04-02T16:35:41.635Z,3.03
2023-04-02T16:38:33.821Z,2.42
2023-04-02T16:41:15.049Z,2.60
2023-04-02T16:43:57.800Z,2.50
2023-04-02T16:46:39.688Z,4.45
2023-04-02T16:49:56.096Z,2.50
2023-04-02T16:52:32.702Z,2.78
2023-04-02T16:55:37.396Z,3.37
2023-04-02T16:58:23.207Z,2.60
2023-04-02T17:01:02.081Z,3.70
2023-04-02T17:03:44.881Z,2.60
2023-04-02T17:06:32.322Z,3.15
2023-04-02T17:09:32.333Z,4.63
2023-04-02T17:12:11.882Z,2.78
2023-04-02T17:14:46.148Z,2.90
2023-04-02T17:17:15.841Z,2.42
2023-04-02T17:19:44.833Z,4.88
2023-04-02T17:22:17.706Z,2.70
2023-04-02T17:24:50.992Z,2.97
2023-04-02T17:27:22.150Z,2.95
2023-04-02T17:29:53.316Z,3.08
2023-04-02T17:32:27.433Z,3.10
2023-04-02T17:34:55.568Z,3.20
2023-04-02T17:37:22.544Z,3.30
2023-04-02T17:40:17.781Z,3.20
2023-04-02T17:43:17.287Z,3.03
2023-04-02T17:45:53.207Z,4.43
2023-04-02T17:48:46.438Z,3.37
2023-04-02T17:51:30.604Z,3.30
2023-04-02T17:54:33.298Z,3.33
2023-04-02T17:57:19.710Z,3.00
2023-04-02T18:00:02.780Z,3.20
2023-04-02T18:02:56.207Z,3.03
2023-04-02T18:05:46.358Z,2.90
2023-04-02T18:08:40.612Z,3.40
2023-04-02T18:11:14.869Z,3.88
2023-04-02T18:14:27.381Z,3.97
2023-04-02T18:17:16.959Z,3.30
2023-04-02T18:20:00.575Z,3.20
2023-04-02T18:22:41.612Z,4.72
2023-04-02T18:25:35.852Z,3.53
2023-04-02T18:28:18.333Z,3.22
2023-04-02T18:31:06.960Z,3.37
2023-04-02T18:33:45.468Z,5.05
2023-04-02T18:36:59.236Z,3.78
2023-04-02T18:39:45.141Z,4.00
2023-04-02T18:42:44.997Z,3.40
2023-04-02T18:45:28.086Z,3.47
2023-04-02T18:48:19.408Z,3.78
2023-04-02T18:50:47.116Z,3.60
2023-04-02T18:53:18.334Z,3.53
2023-04-02T18:56:04.258Z,18.92
2023-04-02T18:58:40.986Z,10.70
2023-04-02T19:01:14.800Z,13.73
2023-04-02T19:04:19.321Z,6.20
2023-04-02T19:06:52.582Z,4.28
2023-04-02T19:09:26.324Z,4.65
2023-04-02T19:11:53.431Z,3.77
2023-04-02T19:14:23.443Z,3.28
2023-04-02T19:17:12.553Z,3.80
2023-04-02T19:19:53.300Z,3.53
2023-04-02T19:22:20.268Z,4.30
2023-04-02T19:25:19.410Z,4.10
2023-04-02T19:28:18.756Z,4.05
2023-04-02T19:30:51.847Z,4.07
2023-04-02T19:33:50.041Z,4.38
2023-04-02T19:36:41.018Z,5.45
2023-04-02T19:39:27.946Z,3.90
2023-04-02T19:42:09.085Z,5.70
2023-04-02T19:44:41.473Z,5.13
2023-04-02T19:47:10.614Z,5.75
2023-04-02T19:49:37.787Z,5.55
2023-04-02T19:52:05.484Z,6.87
2023-04-02T19:54:32.553Z,7.47
2023-04-02T19:57:01.368Z,6.00
2023-04-02T19:59:29.835Z,5.97
2023-04-02T20:01:59.117Z,6.70
2023-04-02T20:04:26.264Z,7.10
2023-04-02T20:06:54.553Z,7.00
2023-04-02T20:09:22.033Z,8.75
2023-04-02T20:11:49.403Z,8.05
2023-04-02T20:14:16.633Z,7.47
2023-04-02T20:16:45.379Z,7.17
2023-04-02T20:19:12.950Z,6.75
2023-04-02T20:21:40.637Z,7.80
2023-04-02T20:24:08.859Z,8.68
2023-04-02T20:26:36.759Z,9.18
2023-04-02T20:29:04.137Z,8.47
2023-04-02T20:31:31.716Z,8.38
2023-04-02T20:33:59.623Z,8.80
2023-04-02T20:36:27.128Z,9.70
2023-04-02T20:38:54.229Z,9.20
2023-04-02T20:41:22.181Z,10.87
2023-04-02T20:43:50.114Z,10.63
2023-04-02T20:46:17.951Z,10.63
2023-04-02T20:48:45.434Z,12.13
2023-04-02T20:51:15.468Z,9.68
2023-04-02T20:53:43.124Z,10.10
2023-04-02T20:56:15.633Z,13.15
2023-04-02T20:58:44.352Z,10.30
2023-04-02T21:01:16.446Z,10.00
2023-04-02T21:03:44.095Z,10.57
2023-04-02T21:06:16.014Z,10.27
2023-04-02T21:08:43.929Z,10.55
2023-04-02T21:11:12.302Z,11.05
2023-04-02T21:13:42.621Z,11.80
2023-04-02T21:16:22.183Z,11.20
2023-04-02T21:18:51.450Z,11.27
2023-04-02T21:21:20.027Z,11.85
2023-04-02T21:23:47.430Z,11.60
2023-04-02T21:26:17.652Z,11.70
2023-04-02T21:28:46.140Z,12.13
2023-04-02T21:31:24.350Z,12.90
2023-04-02T21:33:53.611Z,11.40
2023-04-02T21:36:23.467Z,11.02
2023-04-02T21:38:56.314Z,11.23
2023-04-02T21:41:29.492Z,11.48
2023-04-02T21:43:58.107Z,12.17
2023-04-02T21:46:28.303Z,12.10
2023-04-02T21:48:57.099Z,14.38
2023-04-02T21:51:28.241Z,12.50
2023-04-02T21:53:55.662Z,15.27
2023-04-02T21:56:26.729Z,14.83
2023-04-02T21:58:54.703Z,13.32
2023-04-02T22:01:27.629Z,11.75
2023-04-02T22:03:56.826Z,13.05
2023-04-02T22:06:26.078Z,11.98
2023-04-02T22:09:15.896Z,10.17
2023-04-02T22:11:46.738Z,10.70
2023-04-02T22:14:14.602Z,9.63
2023-04-02T22:16:42.275Z,8.23
2023-04-02T22:19:13.194Z,8.77
2023-04-02T22:21:41.259Z,7.87
2023-04-02T22:24:13.331Z,7.95
2023-04-02T22:26:41.508Z,8.57
2023-04-02T22:29:08.743Z,8.85
2023-04-02T22:31:36.249Z,8.15
2023-04-02T22:34:05.692Z,6.70
2023-04-02T22:36:33.560Z,7.80
2023-04-02T22:39:01.534Z,6.97
2023-04-02T22:41:29.705Z,8.13
2023-04-02T22:43:57.871Z,6.35
2023-04-02T22:46:26.880Z,6.90
2023-04-02T22:48:55.994Z,7.65
2023-04-02T22:51:24.635Z,8.13
2023-04-02T22:53:54.012Z,7.70
2023-04-02T22:56:24.351Z,10.43
2023-04-02T22:58:51.414Z,8.70
2023-04-02T23:01:24.847Z,9.98
2023-04-02T23:03:54.239Z,8.40
2023-04-02T23:06:22.477Z,8.38
2023-04-02T23:08:49.836Z,9.93
2023-04-02T23:11:22.825Z,8.63
2023-04-02T23:13:51.722Z,10.98
2023-04-02T23:16:19.979Z,10.45
2023-04-02T23:18:48.324Z,9.95
2023-04-02T23:21:16.973Z,11.13
2023-04-02T23:23:44.211Z,10.70
2023-04-02T23:26:14.689Z,11.50
2023-04-02T23:28:42.802Z,10.20
2023-04-02T23:31:16.039Z,13.18
2023-04-02T23:33:43.514Z,11.32
2023-04-02T23:36:16.493Z,12.13
2023-04-02T23:38:43.650Z,11.85
2023-04-02T23:41:14.899Z,12.43
2023-04-02T23:43:42.511Z,13.02
2023-04-02T23:46:10.271Z,11.95
2023-04-02T23:48:37.360Z,13.47
2023-04-02T23:51:06.035Z,11.23
2023-04-02T23:53:34.424Z,11.73
2023-04-02T23:56:01.945Z,11.85
2023-04-02T23:58:29.730Z,13.07
